Karan — A8NB3 — position and weather

sailwx.info

Track history (hours):
 
Tides and Currents Weather Stations Pressure Air Temp Water Temp Dewpoint Dewpoint Depression Visibility Wind Speed Wind Dir Waves Ship Positions

Karan

Last reported at 2017-Oct-16 15:02 UTC. Time now 2017-Oct-22 12:21 UTC.
Position N 01°14' E 104°02'.

Length 333 m; draft 21.7 m.

Type: Ship (hazmat cat A). MMSI: 636013451.

Date/timePositionNaut miles runAvg speedWind from/ knotsBaromVisibWave heightAir tempDewpointWater temp
2017-Oct-16 15:02N 01°14' E 104°02'0 2.1
2017-Oct-16 15:00N 01°14' E 104°02'1 1.4
2017-Oct-16 13:59N 01°14' E 104°01'1 1.2
2017-Oct-16 13:30N 01°14' E 104°00'1 1.4
2017-Oct-16 12:59N 01°14' E 103°60'1 1.4
2017-Oct-16 12:30N 01°14' E 103°59'1 1.1
2017-Oct-16 12:00N 01°14' E 103°58'0 1.0
2017-Oct-16 11:30N 01°14' E 103°58'10 1.4
2017-Oct-16 04:09N 01°15' E 104°08'1 8.4
2017-Oct-16 04:00N 01°15' E 104°07'4 7.3
2017-Oct-16 03:29N 01°14' E 104°03'4 7.7
2017-Oct-16 03:00N 01°14' E 103°60'3 5.6
2017-Oct-16 02:30N 01°13' E 103°57'3 6.4
2017-Oct-16 02:00N 01°13' E 103°54'4 7.6
2017-Oct-16 01:30N 01°11' E 103°50'4 8.0
2017-Oct-16 01:00N 01°10' E 103°47'4 7.2
2017-Oct-16 00:30N 01°07' E 103°44'4 8.3
2017-Oct-16 00:00N 01°04' E 103°41'4 7.4
2017-Oct-15 23:30N 01°04' E 103°37'4 7.3
2017-Oct-15 23:00N 01°06' E 103°34'3 6.8
2017-Oct-15 22:30N 01°07' E 103°32'4 8.8
2017-Oct-15 22:00N 01°10' E 103°28'510.3
2017-Oct-15 21:30N 01°12' E 103°23'610.1
2017-Oct-15 20:57N 01°16' E 103°19'810.0
2017-Oct-15 20:08N 01°22' E 103°13'5410.0
2017-Oct-15 14:42N 01°48' E 102°26'  
Track history (hours):
 
Tides and Currents Weather Stations Pressure Air Temp Water Temp Dewpoint Dewpoint Depression Visibility Wind Speed Wind Dir Waves Ship Positions

Karan

Last reported at 2017-Oct-16 15:02 UTC. Time now 2017-Oct-22 12:21 UTC.
Position N 01°14' E 104°02'.

Length 333 m; draft 21.7 m.

Type: Ship (hazmat cat A). MMSI: 636013451.

Date/timePositionNaut miles runAvg speedWind from/ knotsBaromVisibWave heightAir tempDewpointWater temp
2017-Oct-16 15:02N 01°14' E 104°02'0 2.1
2017-Oct-16 15:00N 01°14' E 104°02'1 1.4
2017-Oct-16 13:59N 01°14' E 104°01'1 1.2
2017-Oct-16 13:30N 01°14' E 104°00'1 1.4
2017-Oct-16 12:59N 01°14' E 103°60'1 1.4
2017-Oct-16 12:30N 01°14' E 103°59'1 1.1
2017-Oct-16 12:00N 01°14' E 103°58'0 1.0
2017-Oct-16 11:30N 01°14' E 103°58'10 1.4
2017-Oct-16 04:09N 01°15' E 104°08'1 8.4
2017-Oct-16 04:00N 01°15' E 104°07'4 7.3
2017-Oct-16 03:29N 01°14' E 104°03'4 7.7
2017-Oct-16 03:00N 01°14' E 103°60'3 5.6
2017-Oct-16 02:30N 01°13' E 103°57'3 6.4
2017-Oct-16 02:00N 01°13' E 103°54'4 7.6
2017-Oct-16 01:30N 01°11' E 103°50'4 8.0
2017-Oct-16 01:00N 01°10' E 103°47'4 7.2
2017-Oct-16 00:30N 01°07' E 103°44'4 8.3
2017-Oct-16 00:00N 01°04' E 103°41'4 7.4
2017-Oct-15 23:30N 01°04' E 103°37'4 7.3
2017-Oct-15 23:00N 01°06' E 103°34'3 6.8
2017-Oct-15 22:30N 01°07' E 103°32'4 8.8
2017-Oct-15 22:00N 01°10' E 103°28'510.3
2017-Oct-15 21:30N 01°12' E 103°23'610.1
2017-Oct-15 20:57N 01°16' E 103°19'810.0
2017-Oct-15 20:08N 01°22' E 103°13'5410.0
2017-Oct-15 14:42N 01°48' E 102°26'  

Dump ship's entire track history